sensor_id;sensor_type;location;lat;lon;timestamp;P1;durP1;ratioP1;P2;durP2;ratioP2
3559;SDS011;1794;48.804;9.156;2022-08-19T00:00:49;15.43;;;13.80;;
3559;SDS011;1794;48.804;9.156;2022-08-19T00:03:16;15.20;;;13.20;;
3559;SDS011;1794;48.804;9.156;2022-08-19T00:05:43;14.87;;;13.03;;
3559;SDS011;1794;48.804;9.156;2022-08-19T00:08:11;16.37;;;13.63;;
3559;SDS011;1794;48.804;9.156;2022-08-19T00:10:38;17.33;;;13.33;;
3559;SDS011;1794;48.804;9.156;2022-08-19T00:13:05;13.87;;;12.27;;
3559;SDS011;1794;48.804;9.156;2022-08-19T00:15:32;16.00;;;14.00;;
3559;SDS011;1794;48.804;9.156;2022-08-19T00:17:59;15.93;;;13.70;;
3559;SDS011;1794;48.804;9.156;2022-08-19T00:20:25;13.60;;;11.97;;
3559;SDS011;1794;48.804;9.156;2022-08-19T00:22:52;16.20;;;12.97;;
3559;SDS011;1794;48.804;9.156;2022-08-19T00:25:21;16.63;;;13.57;;
3559;SDS011;1794;48.804;9.156;2022-08-19T00:27:48;16.20;;;13.30;;
3559;SDS011;1794;48.804;9.156;2022-08-19T00:30:15;14.23;;;12.73;;
3559;SDS011;1794;48.804;9.156;2022-08-19T00:32:42;16.43;;;14.70;;
3559;SDS011;1794;48.804;9.156;2022-08-19T00:35:09;15.63;;;13.27;;
3559;SDS011;1794;48.804;9.156;2022-08-19T00:37:36;16.07;;;13.57;;
3559;SDS011;1794;48.804;9.156;2022-08-19T00:40:08;15.60;;;13.17;;
3559;SDS011;1794;48.804;9.156;2022-08-19T00:42:37;16.03;;;13.33;;
3559;SDS011;1794;48.804;9.156;2022-08-19T00:45:05;15.57;;;12.40;;
3559;SDS011;1794;48.804;9.156;2022-08-19T00:47:36;15.00;;;12.57;;
3559;SDS011;1794;48.804;9.156;2022-08-19T00:50:04;17.43;;;13.90;;
3559;SDS011;1794;48.804;9.156;2022-08-19T00:52:32;19.30;;;13.90;;
3559;SDS011;1794;48.804;9.156;2022-08-19T00:55:00;17.40;;;13.37;;
3559;SDS011;1794;48.804;9.156;2022-08-19T00:57:30;16.10;;;13.93;;
3559;SDS011;1794;48.804;9.156;2022-08-19T01:00:03;13.50;;;11.67;;
3559;SDS011;1794;48.804;9.156;2022-08-19T01:02:34;15.30;;;12.17;;
3559;SDS011;1794;48.804;9.156;2022-08-19T01:05:01;16.50;;;13.03;;
3559;SDS011;1794;48.804;9.156;2022-08-19T01:07:32;14.23;;;12.50;;
3559;SDS011;1794;48.804;9.156;2022-08-19T01:09:59;14.87;;;12.90;;
3559;SDS011;1794;48.804;9.156;2022-08-19T01:12:27;18.07;;;14.57;;
3559;SDS011;1794;48.804;9.156;2022-08-19T01:14:53;16.50;;;13.00;;
3559;SDS011;1794;48.804;9.156;2022-08-19T01:17:23;16.03;;;13.63;;
3559;SDS011;1794;48.804;9.156;2022-08-19T01:19:49;17.33;;;13.30;;
3559;SDS011;1794;48.804;9.156;2022-08-19T01:22:18;15.10;;;12.20;;
3559;SDS011;1794;48.804;9.156;2022-08-19T01:24:53;14.17;;;12.40;;
3559;SDS011;1794;48.804;9.156;2022-08-19T01:27:19;15.60;;;12.60;;
3559;SDS011;1794;48.804;9.156;2022-08-19T01:29:46;15.03;;;13.47;;
3559;SDS011;1794;48.804;9.156;2022-08-19T01:32:14;17.70;;;14.47;;
3559;SDS011;1794;48.804;9.156;2022-08-19T01:34:44;18.00;;;15.30;;
3559;SDS011;1794;48.804;9.156;2022-08-19T01:37:12;16.20;;;13.43;;
3559;SDS011;1794;48.804;9.156;2022-08-19T01:39:41;19.57;;;15.87;;
3559;SDS011;1794;48.804;9.156;2022-08-19T01:42:08;16.23;;;13.27;;
3559;SDS011;1794;48.804;9.156;2022-08-19T01:44:37;17.60;;;14.03;;
3559;SDS011;1794;48.804;9.156;2022-08-19T01:47:05;16.17;;;13.40;;
3559;SDS011;1794;48.804;9.156;2022-08-19T01:49:33;18.07;;;13.80;;
3559;SDS011;1794;48.804;9.156;2022-08-19T01:51:59;19.00;;;14.27;;
3559;SDS011;1794;48.804;9.156;2022-08-19T01:54:27;17.33;;;14.07;;
3559;SDS011;1794;48.804;9.156;2022-08-19T01:56:57;17.90;;;14.30;;
3559;SDS011;1794;48.804;9.156;2022-08-19T01:59:27;18.20;;;13.77;;
3559;SDS011;1794;48.804;9.156;2022-08-19T02:01:54;15.37;;;13.40;;
3559;SDS011;1794;48.804;9.156;2022-08-19T02:04:21;16.70;;;14.20;;
3559;SDS011;1794;48.804;9.156;2022-08-19T02:06:48;19.50;;;13.33;;
3559;SDS011;1794;48.804;9.156;2022-08-19T02:09:15;18.57;;;13.73;;
3559;SDS011;1794;48.804;9.156;2022-08-19T02:11:42;17.50;;;14.67;;
3559;SDS011;1794;48.804;9.156;2022-08-19T02:14:10;19.20;;;15.30;;
3559;SDS011;1794;48.804;9.156;2022-08-19T02:16:38;18.63;;;14.60;;
3559;SDS011;1794;48.804;9.156;2022-08-19T02:19:05;19.77;;;15.47;;
3559;SDS011;1794;48.804;9.156;2022-08-19T02:21:33;20.00;;;15.73;;
3559;SDS011;1794;48.804;9.156;2022-08-19T02:24:01;19.27;;;15.10;;
3559;SDS011;1794;48.804;9.156;2022-08-19T02:26:28;18.07;;;14.87;;
3559;SDS011;1794;48.804;9.156;2022-08-19T02:28:55;19.87;;;15.73;;
3559;SDS011;1794;48.804;9.156;2022-08-19T02:31:24;19.00;;;15.70;;
3559;SDS011;1794;48.804;9.156;2022-08-19T02:33:53;19.23;;;17.17;;
3559;SDS011;1794;48.804;9.156;2022-08-19T02:36:20;22.30;;;17.37;;
3559;SDS011;1794;48.804;9.156;2022-08-19T02:38:48;20.63;;;17.83;;
3559;SDS011;1794;48.804;9.156;2022-08-19T02:41:16;23.00;;;16.00;;
3559;SDS011;1794;48.804;9.156;2022-08-19T02:43:44;21.87;;;16.30;;
3559;SDS011;1794;48.804;9.156;2022-08-19T02:46:13;20.80;;;16.27;;
3559;SDS011;1794;48.804;9.156;2022-08-19T02:48:47;20.90;;;16.67;;
3559;SDS011;1794;48.804;9.156;2022-08-19T02:51:17;22.90;;;18.27;;
3559;SDS011;1794;48.804;9.156;2022-08-19T02:53:45;23.93;;;18.20;;
3559;SDS011;1794;48.804;9.156;2022-08-19T02:56:11;22.57;;;18.10;;
3559;SDS011;1794;48.804;9.156;2022-08-19T02:58:39;22.73;;;16.80;;
3559;SDS011;1794;48.804;9.156;2022-08-19T03:01:06;22.03;;;17.47;;
3559;SDS011;1794;48.804;9.156;2022-08-19T03:03:33;21.50;;;18.10;;
3559;SDS011;1794;48.804;9.156;2022-08-19T03:06:09;23.07;;;17.10;;
3559;SDS011;1794;48.804;9.156;2022-08-19T03:08:38;23.17;;;17.90;;
3559;SDS011;1794;48.804;9.156;2022-08-19T03:11:05;23.33;;;18.07;;
3559;SDS011;1794;48.804;9.156;2022-08-19T03:13:32;23.40;;;18.43;;
3559;SDS011;1794;48.804;9.156;2022-08-19T03:15:59;27.03;;;19.20;;
3559;SDS011;1794;48.804;9.156;2022-08-19T03:18:25;20.73;;;17.53;;
3559;SDS011;1794;48.804;9.156;2022-08-19T03:20:52;22.40;;;19.03;;
3559;SDS011;1794;48.804;9.156;2022-08-19T03:23:21;24.33;;;18.97;;
3559;SDS011;1794;48.804;9.156;2022-08-19T03:25:48;23.30;;;19.10;;
3559;SDS011;1794;48.804;9.156;2022-08-19T03:28:18;24.10;;;18.73;;
3559;SDS011;1794;48.804;9.156;2022-08-19T03:30:54;24.10;;;19.60;;
3559;SDS011;1794;48.804;9.156;2022-08-19T03:33:27;23.70;;;19.37;;
3559;SDS011;1794;48.804;9.156;2022-08-19T03:36:05;23.13;;;19.00;;
3559;SDS011;1794;48.804;9.156;2022-08-19T03:38:35;26.63;;;20.63;;
3559;SDS011;1794;48.804;9.156;2022-08-19T03:41:03;26.10;;;20.07;;
3559;SDS011;1794;48.804;9.156;2022-08-19T03:43:33;25.50;;;19.77;;
3559;SDS011;1794;48.804;9.156;2022-08-19T03:46:01;27.97;;;21.10;;
3559;SDS011;1794;48.804;9.156;2022-08-19T03:48:29;29.60;;;19.83;;
3559;SDS011;1794;48.804;9.156;2022-08-19T03:50:56;27.13;;;20.30;;
3559;SDS011;1794;48.804;9.156;2022-08-19T03:53:24;25.20;;;19.90;;
3559;SDS011;1794;48.804;9.156;2022-08-19T03:55:53;26.67;;;21.67;;
3559;SDS011;1794;48.804;9.156;2022-08-19T03:58:20;31.33;;;24.53;;
3559;SDS011;1794;48.804;9.156;2022-08-19T04:00:47;26.70;;;20.50;;
3559;SDS011;1794;48.804;9.156;2022-08-19T04:03:14;28.60;;;21.27;;
3559;SDS011;1794;48.804;9.156;2022-08-19T04:05:43;29.27;;;22.10;;
3559;SDS011;1794;48.804;9.156;2022-08-19T04:08:10;27.33;;;21.47;;
3559;SDS011;1794;48.804;9.156;2022-08-19T04:10:38;27.50;;;21.90;;
3559;SDS011;1794;48.804;9.156;2022-08-19T04:13:06;31.13;;;23.70;;
3559;SDS011;1794;48.804;9.156;2022-08-19T04:15:38;25.50;;;21.47;;
3559;SDS011;1794;48.804;9.156;2022-08-19T04:18:06;28.73;;;21.20;;
3559;SDS011;1794;48.804;9.156;2022-08-19T04:20:37;26.70;;;22.63;;
3559;SDS011;1794;48.804;9.156;2022-08-19T04:23:06;28.57;;;20.70;;
3559;SDS011;1794;48.804;9.156;2022-08-19T04:25:35;24.83;;;21.27;;
3559;SDS011;1794;48.804;9.156;2022-08-19T04:28:03;26.57;;;21.90;;
3559;SDS011;1794;48.804;9.156;2022-08-19T04:30:31;26.40;;;21.90;;
3559;SDS011;1794;48.804;9.156;2022-08-19T04:33:03;27.40;;;22.20;;
3559;SDS011;1794;48.804;9.156;2022-08-19T04:35:34;28.40;;;22.27;;
3559;SDS011;1794;48.804;9.156;2022-08-19T04:38:01;26.63;;;21.03;;
3559;SDS011;1794;48.804;9.156;2022-08-19T04:40:28;29.87;;;20.53;;
3559;SDS011;1794;48.804;9.156;2022-08-19T04:43:12;31.97;;;23.00;;
3559;SDS011;1794;48.804;9.156;2022-08-19T04:45:41;26.70;;;20.87;;
3559;SDS011;1794;48.804;9.156;2022-08-19T04:48:08;27.67;;;21.37;;
3559;SDS011;1794;48.804;9.156;2022-08-19T04:50:35;24.30;;;19.83;;
3559;SDS011;1794;48.804;9.156;2022-08-19T04:53:05;27.20;;;20.67;;
3559;SDS011;1794;48.804;9.156;2022-08-19T04:55:32;26.63;;;22.40;;
3559;SDS011;1794;48.804;9.156;2022-08-19T04:58:00;25.40;;;21.07;;
3559;SDS011;1794;48.804;9.156;2022-08-19T05:00:27;26.13;;;22.70;;
3559;SDS011;1794;48.804;9.156;2022-08-19T05:02:55;25.50;;;20.77;;
3559;SDS011;1794;48.804;9.156;2022-08-19T05:05:22;26.07;;;21.17;;
3559;SDS011;1794;48.804;9.156;2022-08-19T05:07:48;23.23;;;20.53;;
3559;SDS011;1794;48.804;9.156;2022-08-19T05:10:15;26.13;;;21.53;;
3559;SDS011;1794;48.804;9.156;2022-08-19T05:12:42;28.53;;;22.00;;
3559;SDS011;1794;48.804;9.156;2022-08-19T05:15:09;25.60;;;21.40;;
3559;SDS011;1794;48.804;9.156;2022-08-19T05:17:36;24.77;;;20.47;;
3559;SDS011;1794;48.804;9.156;2022-08-19T05:20:04;28.20;;;21.77;;
3559;SDS011;1794;48.804;9.156;2022-08-19T05:22:50;27.60;;;21.90;;
3559;SDS011;1794;48.804;9.156;2022-08-19T05:25:18;25.87;;;22.30;;
3559;SDS011;1794;48.804;9.156;2022-08-19T05:27:46;28.53;;;21.90;;
3559;SDS011;1794;48.804;9.156;2022-08-19T05:30:14;28.70;;;22.17;;
3559;SDS011;1794;48.804;9.156;2022-08-19T05:32:42;25.93;;;22.83;;
3559;SDS011;1794;48.804;9.156;2022-08-19T05:35:10;27.73;;;22.10;;
3559;SDS011;1794;48.804;9.156;2022-08-19T05:37:37;27.33;;;21.60;;
3559;SDS011;1794;48.804;9.156;2022-08-19T05:40:05;27.80;;;21.03;;
3559;SDS011;1794;48.804;9.156;2022-08-19T05:42:32;25.80;;;21.50;;
3559;SDS011;1794;48.804;9.156;2022-08-19T05:45:00;28.83;;;21.87;;
3559;SDS011;1794;48.804;9.156;2022-08-19T05:47:26;28.57;;;21.67;;
3559;SDS011;1794;48.804;9.156;2022-08-19T05:49:53;28.03;;;22.03;;
3559;SDS011;1794;48.804;9.156;2022-08-19T05:52:21;24.43;;;20.83;;
3559;SDS011;1794;48.804;9.156;2022-08-19T05:54:48;24.93;;;20.73;;
3559;SDS011;1794;48.804;9.156;2022-08-19T05:57:16;26.97;;;21.83;;
3559;SDS011;1794;48.804;9.156;2022-08-19T05:59:43;25.27;;;20.80;;
3559;SDS011;1794;48.804;9.156;2022-08-19T06:02:10;24.83;;;20.40;;
3559;SDS011;1794;48.804;9.156;2022-08-19T06:04:38;24.70;;;21.57;;
3559;SDS011;1794;48.804;9.156;2022-08-19T06:07:07;24.00;;;20.10;;
3559;SDS011;1794;48.804;9.156;2022-08-19T06:09:35;24.17;;;19.67;;
3559;SDS011;1794;48.804;9.156;2022-08-19T06:12:02;27.03;;;20.90;;
3559;SDS011;1794;48.804;9.156;2022-08-19T06:14:30;26.83;;;20.77;;
3559;SDS011;1794;48.804;9.156;2022-08-19T06:16:59;24.47;;;20.63;;
3559;SDS011;1794;48.804;9.156;2022-08-19T06:19:27;23.93;;;20.17;;
3559;SDS011;1794;48.804;9.156;2022-08-19T06:21:54;26.80;;;20.83;;
3559;SDS011;1794;48.804;9.156;2022-08-19T06:24:24;29.40;;;21.80;;
3559;SDS011;1794;48.804;9.156;2022-08-19T06:26:53;24.97;;;19.53;;
3559;SDS011;1794;48.804;9.156;2022-08-19T06:29:23;24.60;;;20.50;;
3559;SDS011;1794;48.804;9.156;2022-08-19T06:31:53;23.43;;;19.07;;
3559;SDS011;1794;48.804;9.156;2022-08-19T06:34:21;28.03;;;21.70;;
3559;SDS011;1794;48.804;9.156;2022-08-19T06:36:49;23.50;;;20.33;;
3559;SDS011;1794;48.804;9.156;2022-08-19T06:39:18;23.93;;;19.30;;
3559;SDS011;1794;48.804;9.156;2022-08-19T06:41:47;27.80;;;20.80;;
3559;SDS011;1794;48.804;9.156;2022-08-19T06:44:16;29.13;;;22.80;;
3559;SDS011;1794;48.804;9.156;2022-08-19T06:46:44;27.10;;;21.23;;
3559;SDS011;1794;48.804;9.156;2022-08-19T06:49:11;27.03;;;21.23;;
3559;SDS011;1794;48.804;9.156;2022-08-19T06:51:39;26.00;;;22.17;;
3559;SDS011;1794;48.804;9.156;2022-08-19T06:54:08;27.83;;;21.77;;
3559;SDS011;1794;48.804;9.156;2022-08-19T06:56:35;25.90;;;22.17;;
3559;SDS011;1794;48.804;9.156;2022-08-19T06:59:03;31.63;;;23.87;;
3559;SDS011;1794;48.804;9.156;2022-08-19T07:01:35;26.60;;;21.00;;
3559;SDS011;1794;48.804;9.156;2022-08-19T07:04:03;28.97;;;22.93;;
3559;SDS011;1794;48.804;9.156;2022-08-19T07:06:31;32.83;;;21.93;;
3559;SDS011;1794;48.804;9.156;2022-08-19T07:08:58;26.83;;;21.50;;
3559;SDS011;1794;48.804;9.156;2022-08-19T07:11:24;27.67;;;22.07;;
3559;SDS011;1794;48.804;9.156;2022-08-19T07:13:51;26.40;;;20.87;;
3559;SDS011;1794;48.804;9.156;2022-08-19T07:16:19;30.20;;;22.30;;
3559;SDS011;1794;48.804;9.156;2022-08-19T07:18:48;29.53;;;22.00;;
3559;SDS011;1794;48.804;9.156;2022-08-19T07:21:17;31.47;;;21.37;;
3559;SDS011;1794;48.804;9.156;2022-08-19T07:23:46;26.77;;;20.87;;
3559;SDS011;1794;48.804;9.156;2022-08-19T07:26:16;25.50;;;20.27;;
3559;SDS011;1794;48.804;9.156;2022-08-19T07:28:45;29.50;;;22.50;;
3559;SDS011;1794;48.804;9.156;2022-08-19T07:31:13;23.80;;;19.87;;
3559;SDS011;1794;48.804;9.156;2022-08-19T07:33:43;27.23;;;20.37;;
3559;SDS011;1794;48.804;9.156;2022-08-19T07:36:12;27.30;;;20.50;;
3559;SDS011;1794;48.804;9.156;2022-08-19T07:38:42;27.13;;;21.80;;
3559;SDS011;1794;48.804;9.156;2022-08-19T07:41:12;25.40;;;20.10;;
3559;SDS011;1794;48.804;9.156;2022-08-19T07:43:42;23.83;;;20.00;;
3559;SDS011;1794;48.804;9.156;2022-08-19T07:46:09;22.73;;;18.80;;
3559;SDS011;1794;48.804;9.156;2022-08-19T07:48:38;22.63;;;19.30;;
3559;SDS011;1794;48.804;9.156;2022-08-19T07:51:07;24.37;;;19.77;;
3559;SDS011;1794;48.804;9.156;2022-08-19T07:53:36;24.17;;;20.03;;
3559;SDS011;1794;48.804;9.156;2022-08-19T07:56:04;22.63;;;18.77;;
3559;SDS011;1794;48.804;9.156;2022-08-19T07:58:31;23.73;;;19.80;;
3559;SDS011;1794;48.804;9.156;2022-08-19T08:01:01;24.27;;;18.43;;
3559;SDS011;1794;48.804;9.156;2022-08-19T08:03:28;28.17;;;20.70;;
3559;SDS011;1794;48.804;9.156;2022-08-19T08:06:09;24.90;;;19.40;;
3559;SDS011;1794;48.804;9.156;2022-08-19T08:08:54;23.67;;;19.30;;
3559;SDS011;1794;48.804;9.156;2022-08-19T08:11:47;24.50;;;19.87;;
3559;SDS011;1794;48.804;9.156;2022-08-19T08:14:16;22.33;;;18.70;;
3559;SDS011;1794;48.804;9.156;2022-08-19T08:16:44;22.23;;;18.53;;
3559;SDS011;1794;48.804;9.156;2022-08-19T08:19:11;24.47;;;20.23;;
3559;SDS011;1794;48.804;9.156;2022-08-19T08:21:40;24.73;;;20.30;;
3559;SDS011;1794;48.804;9.156;2022-08-19T08:24:10;23.57;;;18.93;;
3559;SDS011;1794;48.804;9.156;2022-08-19T08:26:37;24.70;;;19.20;;
3559;SDS011;1794;48.804;9.156;2022-08-19T08:29:04;21.90;;;17.97;;
3559;SDS011;1794;48.804;9.156;2022-08-19T08:31:32;24.77;;;18.67;;
3559;SDS011;1794;48.804;9.156;2022-08-19T08:33:59;23.63;;;18.97;;
3559;SDS011;1794;48.804;9.156;2022-08-19T08:36:26;24.07;;;18.23;;
3559;SDS011;1794;48.804;9.156;2022-08-19T08:38:53;23.73;;;18.40;;
3559;SDS011;1794;48.804;9.156;2022-08-19T08:41:24;20.97;;;17.47;;
3559;SDS011;1794;48.804;9.156;2022-08-19T08:43:59;21.97;;;19.20;;
3559;SDS011;1794;48.804;9.156;2022-08-19T08:46:30;21.13;;;18.10;;
3559;SDS011;1794;48.804;9.156;2022-08-19T08:49:18;19.80;;;17.70;;
3559;SDS011;1794;48.804;9.156;2022-08-19T08:51:54;22.97;;;17.97;;
3559;SDS011;1794;48.804;9.156;2022-08-19T08:54:28;22.60;;;18.60;;
3559;SDS011;1794;48.804;9.156;2022-08-19T08:56:59;22.23;;;17.63;;
3559;SDS011;1794;48.804;9.156;2022-08-19T08:59:29;26.50;;;19.93;;
3559;SDS011;1794;48.804;9.156;2022-08-19T09:02:00;22.80;;;17.67;;
3559;SDS011;1794;48.804;9.156;2022-08-19T09:04:27;21.67;;;18.80;;
3559;SDS011;1794;48.804;9.156;2022-08-19T09:07:10;22.33;;;18.43;;
3559;SDS011;1794;48.804;9.156;2022-08-19T09:09:48;20.10;;;17.90;;
3559;SDS011;1794;48.804;9.156;2022-08-19T09:12:19;20.90;;;17.33;;
3559;SDS011;1794;48.804;9.156;2022-08-19T09:14:53;21.83;;;18.53;;
3559;SDS011;1794;48.804;9.156;2022-08-19T09:17:29;23.30;;;16.40;;
3559;SDS011;1794;48.804;9.156;2022-08-19T09:19:58;23.87;;;18.33;;
3559;SDS011;1794;48.804;9.156;2022-08-19T09:22:31;19.87;;;16.70;;
3559;SDS011;1794;48.804;9.156;2022-08-19T09:24:58;20.50;;;16.17;;
3559;SDS011;1794;48.804;9.156;2022-08-19T09:27:28;19.57;;;16.03;;
3559;SDS011;1794;48.804;9.156;2022-08-19T09:29:57;21.63;;;16.70;;
3559;SDS011;1794;48.804;9.156;2022-08-19T09:32:24;17.70;;;15.70;;
3559;SDS011;1794;48.804;9.156;2022-08-19T09:34:51;20.43;;;16.80;;
3559;SDS011;1794;48.804;9.156;2022-08-19T09:37:19;18.27;;;15.47;;
3559;SDS011;1794;48.804;9.156;2022-08-19T09:39:46;16.47;;;14.77;;
3559;SDS011;1794;48.804;9.156;2022-08-19T09:42:13;17.37;;;15.50;;
3559;SDS011;1794;48.804;9.156;2022-08-19T09:44:41;16.43;;;14.73;;
3559;SDS011;1794;48.804;9.156;2022-08-19T09:47:09;17.07;;;14.77;;
3559;SDS011;1794;48.804;9.156;2022-08-19T09:49:37;17.00;;;14.57;;
3559;SDS011;1794;48.804;9.156;2022-08-19T09:52:05;16.60;;;14.80;;
3559;SDS011;1794;48.804;9.156;2022-08-19T09:54:32;16.03;;;14.33;;
3559;SDS011;1794;48.804;9.156;2022-08-19T09:56:59;21.20;;;15.63;;
3559;SDS011;1794;48.804;9.156;2022-08-19T09:59:26;19.23;;;13.67;;
3559;SDS011;1794;48.804;9.156;2022-08-19T10:01:54;15.20;;;13.60;;
3559;SDS011;1794;48.804;9.156;2022-08-19T10:04:21;15.80;;;13.50;;
3559;SDS011;1794;48.804;9.156;2022-08-19T10:07:08;14.33;;;12.93;;
3559;SDS011;1794;48.804;9.156;2022-08-19T10:09:35;15.97;;;13.50;;
3559;SDS011;1794;48.804;9.156;2022-08-19T10:12:02;16.37;;;14.67;;
3559;SDS011;1794;48.804;9.156;2022-08-19T10:14:30;14.80;;;13.20;;
3559;SDS011;1794;48.804;9.156;2022-08-19T10:16:58;18.53;;;13.43;;
3559;SDS011;1794;48.804;9.156;2022-08-19T10:19:27;15.93;;;14.03;;
3559;SDS011;1794;48.804;9.156;2022-08-19T10:21:57;20.37;;;13.50;;
3559;SDS011;1794;48.804;9.156;2022-08-19T10:24:24;13.53;;;12.13;;
3559;SDS011;1794;48.804;9.156;2022-08-19T10:26:52;14.50;;;13.00;;
3559;SDS011;1794;48.804;9.156;2022-08-19T10:29:19;15.23;;;11.70;;
3559;SDS011;1794;48.804;9.156;2022-08-19T10:31:46;15.57;;;13.63;;
3559;SDS011;1794;48.804;9.156;2022-08-19T10:34:14;12.70;;;11.30;;
3559;SDS011;1794;48.804;9.156;2022-08-19T10:36:42;14.60;;;12.07;;
3559;SDS011;1794;48.804;9.156;2022-08-19T10:39:09;13.37;;;12.00;;
3559;SDS011;1794;48.804;9.156;2022-08-19T10:41:38;13.33;;;11.50;;
3559;SDS011;1794;48.804;9.156;2022-08-19T10:44:06;12.73;;;11.43;;
3559;SDS011;1794;48.804;9.156;2022-08-19T10:46:36;11.23;;;9.93;;
3559;SDS011;1794;48.804;9.156;2022-08-19T10:49:06;15.23;;;12.17;;
3559;SDS011;1794;48.804;9.156;2022-08-19T10:51:36;14.60;;;12.57;;
3559;SDS011;1794;48.804;9.156;2022-08-19T10:54:21;15.53;;;11.03;;
3559;SDS011;1794;48.804;9.156;2022-08-19T10:57:08;12.97;;;10.97;;
3559;SDS011;1794;48.804;9.156;2022-08-19T10:59:34;13.63;;;12.20;;
3559;SDS011;1794;48.804;9.156;2022-08-19T11:02:02;13.10;;;11.67;;
3559;SDS011;1794;48.804;9.156;2022-08-19T11:04:30;12.73;;;11.17;;
3559;SDS011;1794;48.804;9.156;2022-08-19T11:06:59;12.30;;;10.30;;
3559;SDS011;1794;48.804;9.156;2022-08-19T11:09:27;13.63;;;12.23;;
3559;SDS011;1794;48.804;9.156;2022-08-19T11:11:54;11.00;;;10.00;;
3559;SDS011;1794;48.804;9.156;2022-08-19T11:14:21;12.33;;;10.30;;
3559;SDS011;1794;48.804;9.156;2022-08-19T11:16:50;11.70;;;9.67;;
3559;SDS011;1794;48.804;9.156;2022-08-19T11:19:18;14.77;;;10.57;;
3559;SDS011;1794;48.804;9.156;2022-08-19T11:21:46;12.80;;;10.77;;
3559;SDS011;1794;48.804;9.156;2022-08-19T11:24:16;10.13;;;9.03;;
3559;SDS011;1794;48.804;9.156;2022-08-19T11:26:45;12.20;;;10.50;;
3559;SDS011;1794;48.804;9.156;2022-08-19T11:29:14;11.60;;;9.07;;
3559;SDS011;1794;48.804;9.156;2022-08-19T11:31:44;10.13;;;9.13;;
3559;SDS011;1794;48.804;9.156;2022-08-19T11:34:13;9.67;;;8.70;;
3559;SDS011;1794;48.804;9.156;2022-08-19T11:36:43;10.43;;;9.43;;
3559;SDS011;1794;48.804;9.156;2022-08-19T11:39:11;9.93;;;8.93;;
3559;SDS011;1794;48.804;9.156;2022-08-19T11:41:40;9.13;;;8.23;;
3559;SDS011;1794;48.804;9.156;2022-08-19T11:44:08;10.33;;;9.27;;
3559;SDS011;1794;48.804;9.156;2022-08-19T11:46:36;10.80;;;9.83;;
3559;SDS011;1794;48.804;9.156;2022-08-19T11:49:03;14.83;;;10.63;;
3559;SDS011;1794;48.804;9.156;2022-08-19T11:51:32;12.07;;;9.50;;
3559;SDS011;1794;48.804;9.156;2022-08-19T11:53:59;17.83;;;10.17;;
3559;SDS011;1794;48.804;9.156;2022-08-19T11:56:27;13.90;;;9.77;;
3559;SDS011;1794;48.804;9.156;2022-08-19T11:58:55;10.97;;;9.87;;
3559;SDS011;1794;48.804;9.156;2022-08-19T12:01:23;11.20;;;10.10;;
3559;SDS011;1794;48.804;9.156;2022-08-19T12:03:52;11.70;;;8.83;;
3559;SDS011;1794;48.804;9.156;2022-08-19T12:06:20;10.90;;;9.70;;
3559;SDS011;1794;48.804;9.156;2022-08-19T12:08:52;10.50;;;9.43;;
3559;SDS011;1794;48.804;9.156;2022-08-19T12:11:18;11.30;;;10.20;;
3559;SDS011;1794;48.804;9.156;2022-08-19T12:13:45;10.93;;;9.73;;
3559;SDS011;1794;48.804;9.156;2022-08-19T12:16:15;10.50;;;9.50;;
3559;SDS011;1794;48.804;9.156;2022-08-19T12:18:44;10.37;;;9.20;;
3559;SDS011;1794;48.804;9.156;2022-08-19T12:21:11;10.03;;;9.07;;
3559;SDS011;1794;48.804;9.156;2022-08-19T12:23:38;12.27;;;11.17;;
3559;SDS011;1794;48.804;9.156;2022-08-19T12:26:05;10.60;;;9.60;;
3559;SDS011;1794;48.804;9.156;2022-08-19T12:28:32;9.80;;;8.90;;
3559;SDS011;1794;48.804;9.156;2022-08-19T12:30:59;11.03;;;9.60;;
3559;SDS011;1794;48.804;9.156;2022-08-19T12:33:27;11.80;;;9.80;;
3559;SDS011;1794;48.804;9.156;2022-08-19T12:35:59;11.73;;;10.03;;
3559;SDS011;1794;48.804;9.156;2022-08-19T12:38:27;11.47;;;10.37;;
3559;SDS011;1794;48.804;9.156;2022-08-19T12:40:54;11.20;;;9.03;;
3559;SDS011;1794;48.804;9.156;2022-08-19T12:43:20;10.20;;;9.17;;
3559;SDS011;1794;48.804;9.156;2022-08-19T12:45:47;13.03;;;9.20;;
3559;SDS011;1794;48.804;9.156;2022-08-19T12:48:14;10.60;;;8.70;;
3559;SDS011;1794;48.804;9.156;2022-08-19T12:50:43;12.30;;;9.60;;
3559;SDS011;1794;48.804;9.156;2022-08-19T12:53:11;11.07;;;9.40;;
3559;SDS011;1794;48.804;9.156;2022-08-19T12:55:38;9.40;;;8.40;;
3559;SDS011;1794;48.804;9.156;2022-08-19T12:58:05;10.37;;;9.00;;
3559;SDS011;1794;48.804;9.156;2022-08-19T13:00:33;10.93;;;9.77;;
3559;SDS011;1794;48.804;9.156;2022-08-19T13:03:00;11.80;;;10.70;;
3559;SDS011;1794;48.804;9.156;2022-08-19T13:05:27;14.90;;;12.77;;
3559;SDS011;1794;48.804;9.156;2022-08-19T13:07:58;15.70;;;11.67;;
3559;SDS011;1794;48.804;9.156;2022-08-19T13:10:26;14.63;;;13.10;;
3559;SDS011;1794;48.804;9.156;2022-08-19T13:12:55;14.43;;;11.30;;
3559;SDS011;1794;48.804;9.156;2022-08-19T13:15:24;13.73;;;11.77;;
3559;SDS011;1794;48.804;9.156;2022-08-19T13:17:53;14.73;;;13.13;;
3559;SDS011;1794;48.804;9.156;2022-08-19T13:20:20;17.03;;;13.63;;
3559;SDS011;1794;48.804;9.156;2022-08-19T13:22:48;14.13;;;12.63;;
3559;SDS011;1794;48.804;9.156;2022-08-19T13:25:16;13.70;;;12.20;;
3559;SDS011;1794;48.804;9.156;2022-08-19T13:27:45;13.10;;;11.70;;
3559;SDS011;1794;48.804;9.156;2022-08-19T13:30:13;17.33;;;14.07;;
3559;SDS011;1794;48.804;9.156;2022-08-19T13:32:58;18.07;;;16.17;;
3559;SDS011;1794;48.804;9.156;2022-08-19T13:35:39;20.50;;;18.17;;
3559;SDS011;1794;48.804;9.156;2022-08-19T13:38:06;21.23;;;19.00;;
3559;SDS011;1794;48.804;9.156;2022-08-19T13:40:35;19.23;;;17.23;;
3559;SDS011;1794;48.804;9.156;2022-08-19T13:43:03;20.60;;;17.77;;
3559;SDS011;1794;48.804;9.156;2022-08-19T13:45:32;21.00;;;18.13;;
3559;SDS011;1794;48.804;9.156;2022-08-19T13:48:00;22.47;;;17.60;;
3559;SDS011;1794;48.804;9.156;2022-08-19T13:50:31;25.50;;;19.80;;
3559;SDS011;1794;48.804;9.156;2022-08-19T13:52:59;22.43;;;20.10;;
3559;SDS011;1794;48.804;9.156;2022-08-19T13:55:27;24.10;;;20.60;;
3559;SDS011;1794;48.804;9.156;2022-08-19T13:57:56;27.70;;;23.70;;
3559;SDS011;1794;48.804;9.156;2022-08-19T14:00:25;31.37;;;24.53;;
3559;SDS011;1794;48.804;9.156;2022-08-19T14:02:54;31.80;;;25.27;;
3559;SDS011;1794;48.804;9.156;2022-08-19T14:05:22;37.47;;;24.77;;
3559;SDS011;1794;48.804;9.156;2022-08-19T14:07:51;32.97;;;25.33;;
3559;SDS011;1794;48.804;9.156;2022-08-19T14:10:17;32.47;;;26.57;;
3559;SDS011;1794;48.804;9.156;2022-08-19T14:12:45;33.37;;;28.37;;
3559;SDS011;1794;48.804;9.156;2022-08-19T14:15:14;28.73;;;23.87;;
3559;SDS011;1794;48.804;9.156;2022-08-19T14:17:44;32.70;;;25.50;;
3559;SDS011;1794;48.804;9.156;2022-08-19T14:20:13;27.97;;;22.47;;
3559;SDS011;1794;48.804;9.156;2022-08-19T14:22:41;26.67;;;20.67;;
3559;SDS011;1794;48.804;9.156;2022-08-19T14:25:09;27.77;;;23.03;;
3559;SDS011;1794;48.804;9.156;2022-08-19T14:27:38;26.33;;;22.60;;
3559;SDS011;1794;48.804;9.156;2022-08-19T14:30:06;28.70;;;23.33;;
3559;SDS011;1794;48.804;9.156;2022-08-19T14:32:35;30.70;;;23.70;;
3559;SDS011;1794;48.804;9.156;2022-08-19T14:35:02;25.97;;;22.33;;
3559;SDS011;1794;48.804;9.156;2022-08-19T14:37:32;25.73;;;20.23;;
3559;SDS011;1794;48.804;9.156;2022-08-19T14:40:00;25.13;;;20.27;;
3559;SDS011;1794;48.804;9.156;2022-08-19T14:42:26;20.70;;;18.43;;
3559;SDS011;1794;48.804;9.156;2022-08-19T14:44:56;24.13;;;19.93;;
3559;SDS011;1794;48.804;9.156;2022-08-19T14:47:24;23.03;;;19.70;;
3559;SDS011;1794;48.804;9.156;2022-08-19T14:49:53;26.50;;;21.50;;
3559;SDS011;1794;48.804;9.156;2022-08-19T14:52:20;22.63;;;19.20;;
3559;SDS011;1794;48.804;9.156;2022-08-19T14:54:46;19.60;;;17.50;;
3559;SDS011;1794;48.804;9.156;2022-08-19T14:57:13;20.33;;;18.00;;